createdAt,value
2018-09-15T00:00:43.160Z,13.70
2018-09-15T00:03:10.715Z,13.70
2018-09-15T00:05:38.252Z,13.60
2018-09-15T00:08:06.356Z,13.60
2018-09-15T00:10:33.889Z,13.60
2018-09-15T00:13:01.843Z,13.60
2018-09-15T00:15:30.009Z,13.60
2018-09-15T00:17:58.949Z,13.60
2018-09-15T00:20:26.893Z,13.60
2018-09-15T00:22:54.976Z,13.50
2018-09-15T00:25:22.502Z,13.50
2018-09-15T00:27:50.045Z,13.40
2018-09-15T00:30:17.565Z,13.40
2018-09-15T00:32:45.441Z,13.40
2018-09-15T00:35:13.329Z,13.40
2018-09-15T00:37:41.345Z,13.50
2018-09-15T00:40:08.921Z,13.50
2018-09-15T00:42:36.407Z,13.50
2018-09-15T00:45:03.956Z,13.40
2018-09-15T00:47:31.441Z,13.40
2018-09-15T00:50:00.346Z,13.40
2018-09-15T00:52:27.865Z,13.40
2018-09-15T00:54:55.428Z,13.30
2018-09-15T00:57:23.413Z,13.30
2018-09-15T00:59:50.914Z,13.40
2018-09-15T01:02:18.427Z,13.30
2018-09-15T01:04:45.950Z,13.40
2018-09-15T01:07:13.952Z,13.30
2018-09-15T01:09:41.489Z,13.40
2018-09-15T01:12:09.438Z,13.30
2018-09-15T01:14:37.028Z,13.30
2018-09-15T01:17:04.525Z,13.30
2018-09-15T01:19:32.084Z,13.20
2018-09-15T01:22:00.010Z,13.20
2018-09-15T01:24:27.516Z,13.20
2018-09-15T01:26:55.061Z,13.10
2018-09-15T01:29:22.584Z,13.10
2018-09-15T01:31:50.728Z,13.10
2018-09-15T01:34:18.620Z,13.10
2018-09-15T01:36:46.466Z,13.10
2018-09-15T01:39:14.003Z,13.10
2018-09-15T01:41:41.507Z,13.10
2018-09-15T01:44:09.084Z,13.10
2018-09-15T01:46:36.603Z,13.10
2018-09-15T01:49:04.483Z,13.10
2018-09-15T01:51:32.343Z,13.00
2018-09-15T01:53:59.840Z,13.10
2018-09-15T01:56:27.706Z,13.00
2018-09-15T01:58:55.231Z,13.00
2018-09-15T02:01:22.722Z,13.10
2018-09-15T02:03:50.284Z,13.00
2018-09-15T02:06:18.177Z,13.00
2018-09-15T02:08:46.106Z,13.10
2018-09-15T02:11:14.182Z,13.10
2018-09-15T02:13:42.900Z,13.20
2018-09-15T02:16:10.452Z,13.30
2018-09-15T02:18:38.327Z,13.40
2018-09-15T02:21:06.218Z,13.40
2018-09-15T02:23:34.331Z,13.40
2018-09-15T02:26:01.848Z,13.40
2018-09-15T02:28:29.371Z,13.40
2018-09-15T02:30:57.564Z,13.30
2018-09-15T02:33:25.866Z,13.40
2018-09-15T02:35:53.383Z,13.40
2018-09-15T02:38:20.892Z,13.40
2018-09-15T02:40:48.427Z,13.40
2018-09-15T02:43:15.970Z,13.40
2018-09-15T02:45:43.955Z,13.50
2018-09-15T02:48:11.467Z,13.60
2018-09-15T02:50:39.419Z,13.60
2018-09-15T02:53:06.914Z,13.70
2018-09-15T02:55:34.987Z,13.70
2018-09-15T02:58:02.539Z,13.70
2018-09-15T03:00:30.047Z,13.80
2018-09-15T03:02:57.599Z,13.80
2018-09-15T03:05:25.105Z,13.80
2018-09-15T03:07:53.301Z,13.90
2018-09-15T03:10:20.893Z,13.90
2018-09-15T03:12:48.809Z,13.90
2018-09-15T03:15:16.347Z,13.90
2018-09-15T03:17:44.447Z,14.00
2018-09-15T03:20:12.334Z,14.00
2018-09-15T03:22:39.889Z,14.10
2018-09-15T03:25:07.419Z,14.10
2018-09-15T03:27:34.943Z,14.00
2018-09-15T03:30:03.186Z,14.10
2018-09-15T03:32:31.306Z,14.00
2018-09-15T03:34:59.722Z,14.00
2018-09-15T03:37:28.298Z,14.00
2018-09-15T03:39:55.804Z,14.10
2018-09-15T03:42:23.435Z,14.10
2018-09-15T03:44:51.335Z,14.20
2018-09-15T03:47:18.843Z,14.20
2018-09-15T03:49:46.701Z,14.20
2018-09-15T03:52:14.255Z,14.20
2018-09-15T03:54:41.791Z,14.30
2018-09-15T03:57:09.624Z,14.30
2018-09-15T03:59:37.208Z,14.30
2018-09-15T04:02:04.799Z,14.20
2018-09-15T04:04:33.015Z,14.30
2018-09-15T04:07:01.067Z,14.20
2018-09-15T04:09:28.610Z,14.30
2018-09-15T04:11:56.719Z,14.30
2018-09-15T04:14:24.415Z,14.40
2018-09-15T04:16:51.957Z,14.40
2018-09-15T04:19:19.500Z,14.30
2018-09-15T04:21:47.401Z,14.30
2018-09-15T04:24:15.882Z,14.40
2018-09-15T04:26:43.407Z,14.40
2018-09-15T04:29:11.380Z,14.40
2018-09-15T04:31:39.359Z,14.40
2018-09-15T04:34:07.152Z,14.40
2018-09-15T04:36:34.679Z,14.30
2018-09-15T04:39:02.350Z,14.20
2018-09-15T04:41:30.281Z,14.20
2018-09-15T04:43:57.785Z,14.10
2018-09-15T04:46:25.296Z,14.10
2018-09-15T04:48:52.917Z,14.00
2018-09-15T04:51:20.827Z,14.00
2018-09-15T04:53:48.340Z,14.00
2018-09-15T04:56:16.489Z,13.90
2018-09-15T04:58:44.067Z,13.80
2018-09-15T05:01:11.954Z,13.90
2018-09-15T05:03:40.023Z,13.80
2018-09-15T05:06:07.584Z,13.80
2018-09-15T05:08:35.606Z,13.80
2018-09-15T05:11:04.200Z,13.80
2018-09-15T05:13:32.748Z,13.80
2018-09-15T05:16:00.298Z,13.80
2018-09-15T05:18:27.829Z,13.90
2018-09-15T05:20:56.087Z,14.00
2018-09-15T05:23:23.591Z,14.00
2018-09-15T05:25:51.830Z,14.20
2018-09-15T05:28:19.364Z,14.20
2018-09-15T05:30:47.458Z,14.30
2018-09-15T05:33:16.363Z,14.40
2018-09-15T05:35:43.855Z,14.50
2018-09-15T05:38:11.895Z,14.50
2018-09-15T05:40:39.467Z,14.60
2018-09-15T05:43:07.737Z,14.70
2018-09-15T05:45:35.932Z,14.80
2018-09-15T05:48:03.482Z,14.90
2018-09-15T05:50:31.665Z,15.00
2018-09-15T05:52:59.271Z,15.00
2018-09-15T05:55:28.040Z,15.10
2018-09-15T05:57:56.306Z,15.10
2018-09-15T06:00:24.596Z,15.20
2018-09-15T06:02:52.644Z,15.20
2018-09-15T06:05:20.407Z,15.20
2018-09-15T06:07:48.326Z,15.20
2018-09-15T06:10:16.487Z,15.20
2018-09-15T06:12:44.967Z,15.30
2018-09-15T06:15:12.498Z,15.30
2018-09-15T06:17:40.018Z,15.40
2018-09-15T06:20:07.551Z,15.40
2018-09-15T06:22:35.085Z,15.50
2018-09-15T06:25:03.047Z,15.70
2018-09-15T06:27:30.615Z,15.80
2018-09-15T06:29:58.123Z,15.90
2018-09-15T06:32:25.997Z,16.10
2018-09-15T06:34:53.879Z,16.20
2018-09-15T06:37:21.967Z,16.30
2018-09-15T06:39:49.495Z,16.40
2018-09-15T06:42:17.020Z,16.40
2018-09-15T06:44:44.995Z,16.50
2018-09-15T06:47:12.505Z,16.60
2018-09-15T06:49:40.705Z,16.60
2018-09-15T06:52:08.231Z,16.60
2018-09-15T06:54:36.140Z,16.70
2018-09-15T06:57:04.256Z,16.70
2018-09-15T06:59:32.098Z,16.70
2018-09-15T07:02:00.872Z,16.70
2018-09-15T07:04:28.427Z,16.70
2018-09-15T07:06:56.326Z,16.80
2018-09-15T07:09:23.939Z,17.00
2018-09-15T07:11:52.121Z,17.00
2018-09-15T07:14:20.826Z,17.10
2018-09-15T07:16:48.415Z,17.20
2018-09-15T07:19:16.896Z,17.20
2018-09-15T07:21:44.763Z,17.30
2018-09-15T07:24:13.255Z,17.40
2018-09-15T07:26:40.804Z,17.40
2018-09-15T07:29:08.326Z,17.50
2018-09-15T07:31:36.355Z,17.50
2018-09-15T07:34:04.413Z,17.50
2018-09-15T07:36:31.927Z,17.50
2018-09-15T07:38:59.479Z,17.40
2018-09-15T07:41:27.033Z,17.40
2018-09-15T07:43:54.555Z,17.40
2018-09-15T07:46:22.209Z,17.50
2018-09-15T07:48:49.764Z,17.50
2018-09-15T07:51:18.088Z,17.70
2018-09-15T07:53:45.655Z,17.70
2018-09-15T07:56:13.649Z,17.80
2018-09-15T07:58:41.756Z,17.90
2018-09-15T08:01:09.572Z,18.00
2018-09-15T08:03:37.783Z,18.10
2018-09-15T08:06:05.476Z,18.20
2018-09-15T08:08:36.138Z,18.20
2018-09-15T08:11:03.879Z,18.40
2018-09-15T08:13:31.400Z,18.30
2018-09-15T08:15:59.670Z,18.30
2018-09-15T08:18:28.025Z,18.50
2018-09-15T08:20:55.821Z,18.60
2018-09-15T08:23:23.336Z,18.70
2018-09-15T08:25:50.884Z,18.80
2018-09-15T08:28:18.692Z,19.00
2018-09-15T08:30:47.968Z,19.00
2018-09-15T08:33:15.857Z,19.00
2018-09-15T08:35:43.368Z,19.10
2018-09-15T08:38:10.880Z,19.20
2018-09-15T08:40:38.834Z,19.30
2018-09-15T08:43:06.354Z,19.40
2018-09-15T08:45:34.764Z,19.50
2018-09-15T08:48:02.415Z,19.70
2018-09-15T08:50:30.544Z,19.80
2018-09-15T08:52:58.619Z,20.00
2018-09-15T08:55:26.831Z,20.20
2018-09-15T08:57:54.426Z,20.40
2018-09-15T09:00:21.951Z,20.40
2018-09-15T09:02:50.625Z,20.50
2018-09-15T09:05:18.155Z,20.70
2018-09-15T09:07:46.328Z,20.70
2018-09-15T09:10:13.841Z,20.80
2018-09-15T09:12:41.719Z,20.90
2018-09-15T09:15:09.264Z,20.90
2018-09-15T09:17:37.249Z,21.10
2018-09-15T09:20:05.306Z,21.10
2018-09-15T09:22:32.770Z,21.10
2018-09-15T09:25:00.311Z,21.20
2018-09-15T09:27:28.268Z,21.20
2018-09-15T09:29:56.127Z,21.30
2018-09-15T09:32:25.157Z,21.30
2018-09-15T09:34:52.939Z,21.40
2018-09-15T09:37:20.448Z,21.60
2018-09-15T09:39:47.999Z,21.70
2018-09-15T09:42:15.945Z,21.90
2018-09-15T09:44:44.326Z,22.00
2018-09-15T09:47:11.876Z,22.10
2018-09-15T09:49:40.527Z,22.30
2018-09-15T09:52:08.601Z,22.40
2018-09-15T09:54:36.167Z,22.20
2018-09-15T09:57:03.966Z,22.10
2018-09-15T09:59:31.559Z,22.00
2018-09-15T10:02:32.262Z,22.00
2018-09-15T10:05:00.432Z,22.00
2018-09-15T10:07:28.480Z,21.80
2018-09-15T10:09:56.005Z,21.70
2018-09-15T10:12:24.050Z,21.60
2018-09-15T10:14:52.095Z,21.30
2018-09-15T10:17:20.290Z,21.30
2018-09-15T10:19:47.807Z,21.30
2018-09-15T10:22:15.343Z,21.40
2018-09-15T10:24:42.914Z,21.60
2018-09-15T10:27:10.804Z,21.70
2018-09-15T10:29:38.313Z,21.80
2018-09-15T10:32:07.180Z,21.60
2018-09-15T10:34:35.129Z,21.10
2018-09-15T10:37:02.922Z,21.00
2018-09-15T10:39:31.346Z,20.90
2018-09-15T10:41:59.212Z,20.80
2018-09-15T10:44:26.831Z,20.70
2018-09-15T10:46:54.748Z,20.60
2018-09-15T10:49:22.799Z,20.40
2018-09-15T10:51:51.102Z,20.50
2018-09-15T10:54:19.079Z,20.30
2018-09-15T10:58:16.426Z,20.20
2018-09-15T11:00:44.933Z,20.20
2018-09-15T11:03:12.608Z,20.20
2018-09-15T11:05:40.273Z,20.20
2018-09-15T11:08:08.209Z,20.30
2018-09-15T11:10:35.753Z,20.50
2018-09-15T11:13:04.185Z,20.60
2018-09-15T11:15:32.182Z,20.80
2018-09-15T11:18:00.283Z,20.80
2018-09-15T11:20:27.843Z,20.90
2018-09-15T11:22:56.249Z,20.80
2018-09-15T11:25:24.224Z,20.90
2018-09-15T11:27:51.791Z,20.80
2018-09-15T11:30:19.621Z,20.70
2018-09-15T11:32:47.923Z,20.80
2018-09-15T11:35:15.529Z,20.90
2018-09-15T11:37:44.380Z,21.00
2018-09-15T11:40:12.479Z,20.90
2018-09-15T11:42:40.346Z,20.90
2018-09-15T11:45:07.912Z,20.80
2018-09-15T11:47:35.988Z,20.80
2018-09-15T11:50:04.354Z,20.70
2018-09-15T11:52:31.892Z,20.80
2018-09-15T11:55:00.108Z,20.80
2018-09-15T11:57:28.359Z,20.90
2018-09-15T11:59:56.662Z,21.00
2018-09-15T12:02:28.858Z,21.00
2018-09-15T12:04:57.324Z,20.90
2018-09-15T12:07:26.265Z,20.70
2018-09-15T12:09:54.775Z,20.80
2018-09-15T12:12:22.689Z,20.80
2018-09-15T12:14:50.334Z,20.70
2018-09-15T12:17:17.863Z,20.70
2018-09-15T12:19:45.516Z,20.70
2018-09-15T12:22:13.649Z,20.70
2018-09-15T12:24:41.273Z,20.70
2018-09-15T12:27:09.126Z,20.80
2018-09-15T12:29:37.540Z,21.00
2018-09-15T12:32:06.456Z,21.00
2018-09-15T12:34:34.373Z,20.90
2018-09-15T12:37:01.905Z,21.00
2018-09-15T12:39:29.554Z,20.90
2018-09-15T12:41:57.617Z,21.10
2018-09-15T12:44:26.119Z,21.10
2018-09-15T12:46:54.239Z,20.90
2018-09-15T12:49:21.987Z,21.00
2018-09-15T12:51:50.021Z,21.00
2018-09-15T12:54:17.928Z,20.90
2018-09-15T12:56:45.528Z,20.90
2018-09-15T12:59:13.138Z,20.90
2018-09-15T13:01:41.157Z,20.80
2018-09-15T13:04:09.578Z,20.80
2018-09-15T13:06:37.779Z,20.80
2018-09-15T13:09:08.106Z,20.90
2018-09-15T13:11:36.850Z,20.90
2018-09-15T13:14:04.392Z,21.00
2018-09-15T13:16:32.210Z,21.00
2018-09-15T13:19:01.192Z,21.00
2018-09-15T13:21:28.719Z,21.00
2018-09-15T13:23:57.212Z,21.10
2018-09-15T13:26:24.743Z,21.40
2018-09-15T13:28:52.281Z,21.50
2018-09-15T13:31:19.863Z,21.30
2018-09-15T13:33:48.157Z,21.60
2018-09-15T13:36:16.122Z,21.60
2018-09-15T13:38:45.257Z,21.50
2018-09-15T13:41:13.255Z,21.50
2018-09-15T13:43:41.300Z,21.60
2018-09-15T13:46:10.370Z,21.50
2018-09-15T13:48:37.897Z,21.50
2018-09-15T13:51:05.867Z,21.30
2018-09-15T13:53:33.370Z,21.30
2018-09-15T13:56:01.066Z,21.20
2018-09-15T13:58:29.018Z,21.10
2018-09-15T14:00:56.585Z,21.20
2018-09-15T14:03:24.489Z,21.10
2018-09-15T14:05:52.923Z,21.20
2018-09-15T14:08:21.018Z,21.20
2018-09-15T14:10:49.039Z,21.30
2018-09-15T14:13:16.949Z,21.40
2018-09-15T14:15:45.185Z,21.50
2018-09-15T14:18:13.460Z,21.50
2018-09-15T14:20:41.064Z,21.50
2018-09-15T14:23:08.589Z,21.40
2018-09-15T14:25:36.131Z,21.50
2018-09-15T14:28:03.731Z,21.50
2018-09-15T14:30:31.388Z,21.50
2018-09-15T14:33:00.369Z,21.40
2018-09-15T14:35:28.285Z,21.50
2018-09-15T14:37:55.916Z,21.30
2018-09-15T14:40:23.833Z,21.30
2018-09-15T14:42:51.833Z,21.30
2018-09-15T14:45:19.915Z,21.30
2018-09-15T14:47:47.840Z,21.30
2018-09-15T14:50:16.144Z,21.40
2018-09-15T14:52:44.074Z,21.40
2018-09-15T14:55:11.687Z,21.40
2018-09-15T14:57:39.208Z,21.40
2018-09-15T15:00:07.490Z,21.40
2018-09-15T15:02:35.470Z,21.40
2018-09-15T15:05:03.760Z,21.40
2018-09-15T15:07:32.676Z,21.40
2018-09-15T15:10:01.041Z,21.30
2018-09-15T15:12:29.032Z,21.30
2018-09-15T15:14:56.992Z,21.30
2018-09-15T15:17:25.360Z,21.30
2018-09-15T15:19:52.865Z,21.30
2018-09-15T15:22:21.463Z,21.20
2018-09-15T15:24:49.056Z,21.20
2018-09-15T15:27:17.864Z,21.10
2018-09-15T15:29:45.763Z,21.00
2018-09-15T15:32:13.378Z,21.00
2018-09-15T15:34:41.240Z,20.90
2018-09-15T15:37:09.800Z,20.80
2018-09-15T15:39:37.756Z,20.80
2018-09-15T15:42:05.751Z,20.80
2018-09-15T15:44:33.658Z,20.70
2018-09-15T15:47:01.475Z,20.70
2018-09-15T15:49:29.090Z,20.70
2018-09-15T15:51:58.251Z,20.60
2018-09-15T15:54:25.782Z,20.60
2018-09-15T15:56:53.356Z,20.50
2018-09-15T15:59:21.391Z,20.40
2018-09-15T16:01:49.491Z,20.40
2018-09-15T16:04:18.175Z,20.30
2018-09-15T16:06:45.731Z,20.30
2018-09-15T16:09:13.744Z,20.30
2018-09-15T16:11:41.675Z,20.30
2018-09-15T16:14:09.248Z,20.20
2018-09-15T16:16:36.763Z,20.20
2018-09-15T16:19:04.337Z,20.20
2018-09-15T16:21:31.853Z,20.20
2018-09-15T16:23:59.443Z,20.20
2018-09-15T16:26:27.036Z,20.10
2018-09-15T16:28:55.292Z,20.10
2018-09-15T16:31:22.851Z,20.10
2018-09-15T16:33:51.946Z,20.00
2018-09-15T16:36:19.865Z,19.90
2018-09-15T16:38:47.891Z,19.90
2018-09-15T16:41:15.444Z,19.80
2018-09-15T16:43:43.312Z,19.80
2018-09-15T16:46:11.368Z,19.80
2018-09-15T16:48:38.888Z,19.70
2018-09-15T16:51:07.025Z,19.70
2018-09-15T16:53:34.745Z,19.60
2018-09-15T16:56:02.644Z,19.60
2018-09-15T16:58:31.521Z,19.60
2018-09-15T17:00:59.049Z,19.50
2018-09-15T17:03:27.151Z,19.50
2018-09-15T17:05:54.718Z,19.50
2018-09-15T17:08:22.700Z,19.40
2018-09-15T17:10:50.681Z,19.40
2018-09-15T17:13:18.280Z,19.40
2018-09-15T17:15:45.920Z,19.30
2018-09-15T17:18:13.543Z,19.30
2018-09-15T17:20:41.155Z,19.20
2018-09-15T17:23:08.882Z,19.20
2018-09-15T17:25:36.513Z,19.10
2018-09-15T17:28:04.051Z,19.00
2018-09-15T17:30:32.215Z,18.90
2018-09-15T17:33:00.207Z,18.90
2018-09-15T17:35:28.813Z,18.90
2018-09-15T17:37:56.335Z,18.90
2018-09-15T17:40:24.313Z,18.90
2018-09-15T17:42:52.306Z,18.90
2018-09-15T17:45:19.878Z,18.90
2018-09-15T17:47:47.743Z,18.90
2018-09-15T17:50:15.830Z,18.90
2018-09-15T17:52:43.396Z,18.90
2018-09-15T17:55:12.265Z,18.90
2018-09-15T17:57:39.785Z,18.90
2018-09-15T18:00:07.732Z,18.80
2018-09-15T18:02:35.545Z,18.80
2018-09-15T18:05:03.204Z,18.80
2018-09-15T18:07:31.826Z,18.70
2018-09-15T18:09:59.354Z,18.60
2018-09-15T18:12:27.307Z,18.70
2018-09-15T18:14:54.860Z,18.70
2018-09-15T18:17:22.424Z,18.60
2018-09-15T18:19:50.186Z,18.50
2018-09-15T18:22:17.780Z,18.40
2018-09-15T18:24:45.411Z,18.30
2018-09-15T18:27:14.376Z,18.20
2018-09-15T18:29:42.260Z,18.20
2018-09-15T18:32:09.795Z,18.20
2018-09-15T18:34:37.856Z,18.20
2018-09-15T18:37:05.473Z,18.20
2018-09-15T18:39:33.338Z,18.10
2018-09-15T18:42:01.455Z,18.10
2018-09-15T18:44:29.604Z,18.00
2018-09-15T18:46:57.553Z,18.00
2018-09-15T18:49:25.074Z,18.00
2018-09-15T18:51:53.364Z,17.90
2018-09-15T18:54:21.381Z,17.80
2018-09-15T18:56:48.961Z,17.80
2018-09-15T18:59:16.488Z,17.80
2018-09-15T19:01:44.062Z,17.70
2018-09-15T19:04:11.601Z,17.50
2018-09-15T19:06:39.529Z,17.40
2018-09-15T19:09:09.256Z,17.40
2018-09-15T19:11:37.751Z,17.40
2018-09-15T19:14:05.628Z,17.40
2018-09-15T19:16:33.152Z,17.50
2018-09-15T19:19:00.740Z,17.50
2018-09-15T19:21:28.264Z,17.40
2018-09-15T19:23:56.135Z,17.30
2018-09-15T19:26:24.411Z,17.50
2018-09-15T19:28:52.072Z,17.50
2018-09-15T19:31:19.969Z,17.50
2018-09-15T19:33:49.553Z,17.50
2018-09-15T19:36:17.738Z,17.50
2018-09-15T19:38:45.276Z,17.40
2018-09-15T19:41:12.792Z,17.40
2018-09-15T19:43:40.565Z,17.40
2018-09-15T19:46:09.522Z,17.40
2018-09-15T19:48:37.091Z,17.30
2018-09-15T19:51:05.256Z,17.40
2018-09-15T19:53:32.800Z,17.30
2018-09-15T19:56:00.329Z,17.40
2018-09-15T19:58:27.883Z,17.40
2018-09-15T20:00:55.484Z,17.40
2018-09-15T20:03:23.586Z,17.40
2018-09-15T20:05:51.099Z,17.50
2018-09-15T20:08:19.104Z,17.40
2018-09-15T20:10:47.217Z,17.40
2018-09-15T20:13:14.713Z,17.30
2018-09-15T20:15:41.169Z,17.30
2018-09-15T20:18:07.649Z,17.30
2018-09-15T20:20:34.105Z,17.30
2018-09-15T20:23:01.740Z,17.20
2018-09-15T20:25:29.573Z,17.20
2018-09-15T20:27:57.116Z,17.20
2018-09-15T20:30:24.658Z,17.20
2018-09-15T20:32:52.850Z,17.20
2018-09-15T20:35:20.443Z,17.20
2018-09-15T20:37:48.898Z,17.10
2018-09-15T20:40:17.166Z,17.10
2018-09-15T20:42:44.694Z,17.10
2018-09-15T20:45:12.232Z,17.10
2018-09-15T20:47:40.409Z,17.10
2018-09-15T20:50:08.594Z,17.10
2018-09-15T20:52:36.872Z,17.20
2018-09-15T20:55:04.588Z,17.20
2018-09-15T20:57:32.099Z,17.10
2018-09-15T21:00:00.196Z,17.20
2018-09-15T21:02:28.441Z,17.20
2018-09-15T21:04:55.962Z,17.10
2018-09-15T21:07:23.971Z,17.10
2018-09-15T21:09:51.520Z,17.10
2018-09-15T21:12:19.659Z,17.10
2018-09-15T21:14:47.187Z,17.10
2018-09-15T21:17:14.700Z,17.10
2018-09-15T21:19:42.327Z,17.10
2018-09-15T21:22:10.323Z,17.00
2018-09-15T21:24:38.203Z,17.10
2018-09-15T21:27:06.002Z,17.10
2018-09-15T21:29:33.547Z,17.10
2018-09-15T21:32:01.128Z,17.10
2018-09-15T21:34:29.250Z,17.10
2018-09-15T21:36:56.766Z,17.10
2018-09-15T21:39:24.949Z,17.20
2018-09-15T21:41:53.196Z,17.10
2018-09-15T21:44:21.148Z,17.10
2018-09-15T21:46:49.226Z,17.10
2018-09-15T21:49:16.793Z,17.10
2018-09-15T21:51:44.867Z,17.00
2018-09-15T21:54:13.332Z,17.00
2018-09-15T21:56:41.546Z,17.10
2018-09-15T21:59:09.881Z,17.10
2018-09-15T22:01:38.142Z,17.10
2018-09-15T22:04:11.429Z,17.10
2018-09-15T22:06:39.138Z,17.00
2018-09-15T22:09:08.651Z,17.00
2018-09-15T22:11:37.215Z,17.00
2018-09-15T22:14:04.993Z,17.00
2018-09-15T22:16:33.072Z,17.00
2018-09-15T22:19:00.815Z,17.00
2018-09-15T22:21:29.016Z,17.00
2018-09-15T22:23:56.741Z,17.00
2018-09-15T22:26:25.225Z,17.00
2018-09-15T22:28:52.982Z,16.90
2018-09-15T22:31:21.373Z,16.90
2018-09-15T22:33:49.511Z,16.90
2018-09-15T22:36:17.207Z,16.90
2018-09-15T22:38:45.597Z,16.80
2018-09-15T22:41:14.217Z,16.80
2018-09-15T22:43:43.521Z,16.70
2018-09-15T22:46:11.706Z,16.70
2018-09-15T22:48:40.024Z,16.70
2018-09-15T22:51:08.405Z,16.60
2018-09-15T22:53:36.097Z,16.60
2018-09-15T22:56:04.208Z,16.60
2018-09-15T22:58:31.879Z,16.40
2018-09-15T23:00:59.550Z,16.40
2018-09-15T23:03:27.495Z,16.40
2018-09-15T23:05:55.148Z,16.30
2018-09-15T23:08:24.304Z,16.30
2018-09-15T23:10:52.590Z,16.30
2018-09-15T23:13:20.252Z,16.30
2018-09-15T23:15:48.175Z,16.30
2018-09-15T23:18:16.398Z,16.30
2018-09-15T23:20:44.069Z,16.30
2018-09-15T23:23:11.758Z,16.30
2018-09-15T23:25:39.450Z,16.30
2018-09-15T23:28:07.097Z,16.30
2018-09-15T23:30:34.921Z,16.40
2018-09-15T23:33:03.809Z,16.40
2018-09-15T23:35:31.481Z,16.40
2018-09-15T23:37:59.203Z,16.30
2018-09-15T23:40:27.389Z,16.30
2018-09-15T23:42:55.028Z,16.40
2018-09-15T23:45:22.731Z,16.30
2018-09-15T23:47:50.926Z,16.30
2018-09-15T23:50:18.650Z,16.30
2018-09-15T23:52:46.686Z,16.30
2018-09-15T23:55:14.427Z,16.30
2018-09-15T23:57:42.102Z,16.30
